Gilford, Michigan
Current Conditions -  °F | °C
As of 10:35 AM on Thursday 30 Oct 2014 (Local Time) from KCFS Reporting Station
Overcast Overcast  
Wind Chill: 41°   Ceiling: 3900
Heat Index: 41°   Visibility: 10mi
Dew Point: 37°   Wind: 3mph
Humidity: 86%   Direction: 220°SW
Pressure: 30.13"   Gusts: NA
Location:  43.49°N, 83.62°W
Report Text: KCFS 301435Z AUTO 22003KT 10SM OVC039 05/03 A3013 RMK AO2 T00490027
Loading
Personal Weather Stations






























Interactive Weather Map
Tropical Storm Tracking
New forecast layout! Learn more

10-Day Weather Forecast

Advertisements
Track Severe Weather on mobile